world map with ACH marked

ACH - Airport

This information may not be accurate or current and is not valid for navigation or flight planning. No warranty of fitness for any purpose is made or implied.

flag of Sankt Gallenflag of Switzerland

Donate via PayPal

Additional information is available on the NEW Great Circle Mapper

Location
City:  St. Gallen / Altenrhein, Sankt Gallen, Switzerland
Name:St. Gallen-Altenrhein Airport
ICAO / IATA:LSZR / ACH

Details
Type:Airport (Aerodrome, Airfield)
Use:Public/Civil
Latitude:47°29'06"N (47.485033)
Longitude:9°33'39"E (9.560775)
Datum:WGS 1984
Elevation:1306 ft (398 m)
Runways:2
Longest:4922 × 98 ft (1500 × 30 m)

Time
Timezone:UTC+1 (DST+4)
Local Time:

Weather
METAR:LSZR  041350Z 08005KT 9999 FEW030 01/M03 Q1026 NOSIG RMK J

Related Locations
Nearby:
Farthest:CHT: 12049 mi / 19391 km
Waitangi [Tuuta], CIT, NZ

Find:

   beyond  
but within

Other Information
Maps:
Links:
Sources:

  


 


Great Circle Mapper   Great Circle Mapper
Great Circle Mapper FAQ   Great Circle Mapper FAQ
  Karl's Home Page
KLSē   KLSē Home
   GC on Facebook
Airlines of the World   Airlines of the World
Donate via PayPal


Copyright © 2004-2019, Karl L. Swartz. All rights reserved.
All trademarks mentioned herein belong to their respective owners.

Please see credits for attribution and copyright information.

Karl Swartz <karl@kls2.com>
  Powered by FreeBSD
Valid HTML 4.01!
Labeled with ICRA
hCard Microformat
Geo Microformat